Time;durP1;ratioP1;P1;durP2;ratioP2;P2;SDS_P1;SDS_P2;PMS_P1;PMS_P2;Temp;Humidity;BMP_temperature;BMP_pressure;BME280_temperature;BME280_humidity;BME280_pressure;Samples;Min_cycle;Max_cycle;Signal;HPM_P1;HPM_P2
2021/01/07 00:01:21;;;;;;;11.23;8.70;;;5.70;99.90;;;;;;6153407;23;20150;-78
2021/01/07 00:04:10;;;;;;;12.90;9.80;;;5.60;99.90;;;;;;6153807;23;20208;-78
2021/01/07 00:06:48;;;;;;;14.48;9.50;;;5.60;99.90;;;;;;6176220;23;20174;-78
2021/01/07 00:09:22;;;;;;;12.07;10.13;;;5.70;99.90;;;;;;6152920;23;20443;-78
2021/01/07 00:12:11;;;;;;;13.38;11.10;;;5.70;99.90;;;;;;6153544;23;20462;-78
2021/01/07 00:14:53;;;;;;;12.18;10.85;;;5.70;99.90;;;;;;6127355;23;20167;-78
2021/01/07 00:17:43;;;;;;;14.63;11.43;;;5.70;99.90;;;;;;6151552;23;20517;-78
2021/01/07 00:20:17;;;;;;;15.95;12.02;;;5.70;99.90;;;;;;6153030;23;20143;-78
2021/01/07 00:23:14;;;;;;;12.25;9.35;;;5.70;99.90;;;;;;6153653;23;20141;-78
2021/01/07 00:26:04;;;;;;;12.82;10.15;;;5.70;99.90;;;;;;6153483;23;20134;-78
2021/01/07 00:28:36;;;;;;;13.60;10.65;;;5.70;99.90;;;;;;6153112;23;20246;-78
2021/01/07 00:31:22;;;;;;;11.90;10.10;;;5.70;99.90;;;;;;6153392;23;20142;-78
2021/01/07 00:34:14;;;;;;;13.95;10.00;;;5.70;99.90;;;;;;6153327;23;20182;-78
2021/01/07 00:37:06;;;;;;;14.70;11.85;;;5.70;99.90;;;;;;6152035;23;20178;-78
2021/01/07 00:40:10;;;;;;;12.35;9.95;;;5.70;99.90;;;;;;6153309;23;20146;-78
2021/01/07 00:43:12;;;;;;;13.13;10.40;;;5.70;99.90;;;;;;6142907;23;20161;-78
2021/01/07 00:46:11;;;;;;;11.40;8.93;;;5.70;99.90;;;;;;6172965;23;20184;-78
2021/01/07 00:49:09;;;;;;;13.00;9.63;;;5.60;99.90;;;;;;6152623;23;20473;-78
2021/01/07 00:51:57;;;;;;;11.82;10.32;;;5.70;99.90;;;;;;6153225;23;20132;-80
2021/01/07 00:54:35;;;;;;;13.80;9.05;;;5.70;99.90;;;;;;6153452;23;20550;-78
2021/01/07 00:57:24;;;;;;;10.85;9.75;;;5.70;99.90;;;;;;6152174;23;20201;-78
2021/01/07 01:04:07;;;;;;;14.40;11.07;;;5.60;99.90;;;;;;6153443;23;20154;-78
2021/01/07 01:15:47;;;;;;;11.60;9.55;;;5.60;99.90;;;;;;6137111;23;20155;-78
2021/01/07 01:22:05;;;;;;;11.70;9.48;;;5.60;99.90;;;;;;6152858;23;20731;-80
2021/01/07 01:25:28;;;;;;;12.48;10.13;;;5.60;99.90;;;;;;6152402;23;20265;-78
2021/01/07 01:28:45;;;;;;;11.27;8.75;;;5.60;99.90;;;;;;6001438;23;20185;-78
2021/01/07 01:31:24;;;;;;;13.27;11.23;;;5.60;99.90;;;;;;6135739;23;20185;-78
2021/01/07 01:34:19;;;;;;;11.75;9.25;;;5.60;99.90;;;;;;6152959;23;20213;-79
2021/01/07 01:38:42;;;;;;;;;;;;;;;;;;;;;
2021/01/07 01:42:04;;;;;;;11.93;8.77;;;5.60;99.90;;;;;;6094632;23;20241;-79
2021/01/07 01:45:37;;;;;;;12.35;9.75;;;5.60;99.90;;;;;;6153350;23;20174;-79
2021/01/07 01:49:16;;;;;;;17.05;10.15;;;5.60;99.90;;;;;;6150625;23;20178;-79
2021/01/07 01:51:54;;;;;;;14.20;9.07;;;5.60;99.90;;;;;;6154069;23;20226;-79
2021/01/07 01:55:21;;;;;;;10.98;8.50;;;5.60;99.90;;;;;;6153103;23;20170;-79
2021/01/07 01:58:44;;;;;;;10.32;8.90;;;5.60;99.90;;;;;;6158689;23;20162;-79
2021/01/07 02:01:29;;;;;;;12.60;9.63;;;5.60;99.90;;;;;;6169983;23;20134;-79
2021/01/07 02:04:24;;;;;;;11.27;8.73;;;5.60;99.90;;;;;;6171921;23;20238;-79
2021/01/07 02:07:47;;;;;;;;;;;;;;;;;;;;;
2021/01/07 02:10:33;;;;;;;9.55;7.97;;;5.60;99.90;;;;;;6162058;23;20131;-78
2021/01/07 02:13:50;;;;;;;12.20;8.80;;;5.70;99.90;;;;;;6161005;23;20254;-78
2021/01/07 02:16:53;;;;;;;;;;;;;;;;;;;;;
2021/01/07 02:19:58;;;;;;;10.32;8.30;;;5.70;99.90;;;;;;6159925;23;20212;-78
2021/01/07 02:23:09;;;;;;;10.60;8.48;;;5.70;99.90;;;;;;6155438;23;20174;-78
2021/01/07 02:26:15;;;;;;;12.52;8.65;;;5.70;99.90;;;;;;6153126;23;20130;-78
2021/01/07 02:32:21;;;;;;;12.93;8.88;;;5.70;99.90;;;;;;6151808;23;20177;-79
2021/01/07 02:34:57;;;;;;;12.00;8.38;;;5.70;99.90;;;;;;6151766;23;20667;-78
2021/01/07 02:37:51;;;;;;;12.40;9.00;;;5.70;99.90;;;;;;6127528;23;20182;-80
2021/01/07 02:41:16;;;;;;;12.45;8.75;;;5.70;99.90;;;;;;6106829;23;20289;-80
2021/01/07 02:44:36;;;;;;;11.13;8.35;;;5.70;99.90;;;;;;6152162;23;20321;-80
2021/01/07 02:47:15;;;;;;;13.73;9.43;;;5.70;99.90;;;;;;6151849;23;20213;-80
2021/01/07 02:50:42;;;;;;;15.13;10.82;;;5.70;99.90;;;;;;6128341;23;20154;-81
2021/01/07 02:53:31;;;;;;;12.82;10.00;;;5.60;99.90;;;;;;6151895;23;20155;-81
2021/01/07 02:56:55;;;;;;;14.38;9.82;;;5.70;99.90;;;;;;6111287;23;20200;-80
2021/01/07 03:00:22;;;;;;;13.90;9.55;;;5.60;99.90;;;;;;5928836;23;20152;-80
2021/01/07 03:02:53;;;;;;;9.98;8.65;;;5.60;99.90;;;;;;6126827;23;20150;-80
2021/01/07 03:05:47;;;;;;;12.55;10.13;;;5.60;99.90;;;;;;6127366;23;20138;-80
2021/01/07 03:08:37;;;;;;;18.80;10.68;;;5.60;99.90;;;;;;6125766;23;20186;-80
2021/01/07 03:12:32;;;;;;;;;;;;;;;;;;;;;
2021/01/07 03:19:23;;;;;;;11.20;8.55;;;5.60;99.90;;;;;;6137375;23;20471;-80
2021/01/07 03:22:17;;;;;;;11.77;9.88;;;5.60;99.90;;;;;;6153782;23;20150;-80
2021/01/07 03:26:19;;;;;;;;;;;;;;;;;;;;;
2021/01/07 03:30:15;;;;;;;12.43;8.63;;;5.60;99.90;;;;;;6153104;23;20146;-80
2021/01/07 03:33:42;;;;;;;15.57;11.07;;;5.60;99.90;;;;;;6154276;23;20135;-81
2021/01/07 03:37:13;;;;;;;10.40;8.15;;;5.60;99.90;;;;;;6168536;23;20167;-80
2021/01/07 03:44:45;;;;;;;13.32;9.48;;;5.60;99.90;;;;;;5989360;23;20252;-80
2021/01/07 03:48:02;;;;;;;15.15;10.90;;;5.60;99.90;;;;;;6034159;23;20312;-79
2021/01/07 03:51:32;;;;;;;17.13;10.68;;;5.60;99.90;;;;;;6019398;23;20180;-79
2021/01/07 03:54:57;;;;;;;16.30;10.82;;;5.60;99.90;;;;;;6086360;23;20177;-80
2021/01/07 03:58:06;;;;;;;;;;;;;;;;;;;;;
2021/01/07 04:01:29;;;;;;;;;;;;;;;;;;;;;
2021/01/07 04:04:47;;;;;;;12.82;8.82;;;5.60;99.90;;;;;;6151821;23;20174;-80
2021/01/07 04:08:04;;;;;;;13.70;9.75;;;5.60;99.90;;;;;;6152339;23;20244;-80
2021/01/07 04:15:50;;;;;;;11.50;8.75;;;5.60;99.90;;;;;;6139779;23;20185;-80
2021/01/07 04:18:43;;;;;;;16.40;9.20;;;5.50;99.90;;;;;;6152844;23;20189;-79
2021/01/07 04:21:45;;;;;;;12.90;9.27;;;5.50;99.90;;;;;;6153280;23;20139;-79
2021/01/07 04:24:49;;;;;;;12.15;8.85;;;5.60;99.90;;;;;;6091748;23;20170;-78
2021/01/07 04:27:28;;;;;;;14.38;9.45;;;5.50;99.90;;;;;;6151349;23;20166;-77
2021/01/07 04:30:31;;;;;;;12.07;9.82;;;5.60;99.90;;;;;;6153358;23;20130;-77
2021/01/07 04:33:07;;;;;;;13.45;9.65;;;5.50;99.90;;;;;;6170241;23;20163;-77
2021/01/07 04:35:47;;;;;;;15.05;11.02;;;5.60;99.90;;;;;;6153907;23;20189;-79
2021/01/07 04:38:39;;;;;;;17.08;11.77;;;5.60;99.90;;;;;;6127223;23;20504;-80
2021/01/07 04:41:13;;;;;;;17.10;12.15;;;5.60;99.90;;;;;;6153606;23;20155;-79
2021/01/07 04:43:44;;;;;;;15.98;11.00;;;5.50;99.90;;;;;;6153896;23;20174;-79
2021/01/07 04:46:54;;;;;;;19.80;11.15;;;5.50;99.90;;;;;;6110907;23;20267;-79
2021/01/07 04:49:26;;;;;;;13.55;10.57;;;5.60;99.90;;;;;;6153559;23;20138;-80
2021/01/07 04:52:15;;;;;;;15.00;10.55;;;5.60;99.90;;;;;;6133064;23;20209;-80
2021/01/07 04:55:29;;;;;;;12.63;9.57;;;5.60;99.90;;;;;;6105938;23;20170;-79
2021/01/07 04:58:19;;;;;;;14.80;11.95;;;5.60;99.90;;;;;;6153282;23;20158;-79
2021/01/07 05:02:00;;;;;;;13.32;9.60;;;5.60;99.90;;;;;;6078166;23;20168;-80
2021/01/07 05:05:52;;;;;;;16.63;11.52;;;5.70;99.90;;;;;;6112541;23;20247;-80
2021/01/07 05:09:16;;;;;;;16.38;11.05;;;5.70;99.90;;;;;;6116076;23;20240;-79
2021/01/07 05:12:08;;;;;;;14.85;10.88;;;5.70;99.90;;;;;;5978324;24;20164;-79
2021/01/07 05:15:18;;;;;;;16.50;11.77;;;5.70;99.90;;;;;;5952938;24;20185;-79
2021/01/07 05:18:40;;;;;;;19.60;11.77;;;5.70;99.90;;;;;;5977801;24;20571;-80
2021/01/07 05:22:20;;;;;;;16.27;11.63;;;5.70;99.90;;;;;;6105773;23;20200;-82
2021/01/07 05:25:08;;;;;;;15.95;12.13;;;5.70;99.90;;;;;;6132496;23;20174;-79
2021/01/07 05:28:18;;;;;;;15.07;11.25;;;5.70;99.90;;;;;;6131577;23;20547;-79
2021/01/07 05:31:02;;;;;;;15.90;12.18;;;5.70;99.90;;;;;;6158923;23;20169;-79
2021/01/07 05:40:30;;;;;;;16.10;12.00;;;5.80;99.90;;;;;;6126941;23;20139;-79
2021/01/07 05:43:14;;;;;;;14.75;10.75;;;5.80;99.90;;;;;;6153117;23;20470;-79
2021/01/07 05:46:00;;;;;;;19.23;13.50;;;5.80;99.90;;;;;;6129035;23;20142;-82
2021/01/07 05:48:35;;;;;;;20.95;14.15;;;5.80;99.90;;;;;;6126749;23;20174;-80
2021/01/07 05:51:11;;;;;;;17.83;12.82;;;5.80;99.90;;;;;;6127583;23;20135;-80
2021/01/07 05:53:38;;;;;;;19.65;13.07;;;5.70;99.90;;;;;;6153624;23;20162;-80
2021/01/07 05:56:10;;;;;;;17.77;12.10;;;5.70;99.90;;;;;;6153510;23;20151;-80
2021/01/07 05:59:33;;;;;;;21.52;13.80;;;5.70;99.90;;;;;;6153677;23;20143;-80
2021/01/07 06:03:07;;;;;;;17.63;12.52;;;5.70;99.90;;;;;;6152713;23;20213;-80
2021/01/07 06:05:43;;;;;;;16.95;12.68;;;5.70;99.90;;;;;;6153588;23;20166;-80
2021/01/07 06:08:36;;;;;;;21.50;14.27;;;5.70;99.90;;;;;;6107982;23;20174;-81
2021/01/07 06:11:25;;;;;;;20.10;14.23;;;5.70;99.90;;;;;;6103363;23;20169;-82
2021/01/07 06:13:59;;;;;;;18.63;12.55;;;5.80;99.90;;;;;;6127580;23;20553;-82
2021/01/07 06:16:43;;;;;;;17.85;14.35;;;5.80;99.90;;;;;;6153560;23;20158;-81
2021/01/07 06:19:52;;;;;;;23.70;16.65;;;5.70;99.90;;;;;;6131166;23;20180;-81
2021/01/07 06:23:04;;;;;;;21.15;14.02;;;5.70;99.90;;;;;;6150667;23;20597;-81
2021/01/07 06:25:38;;;;;;;21.65;15.18;;;5.80;99.90;;;;;;6126663;23;20177;-81
2021/01/07 06:28:25;;;;;;;22.67;14.45;;;5.70;99.90;;;;;;6102432;23;20178;-81
2021/01/07 06:31:05;;;;;;;23.38;17.20;;;5.70;99.90;;;;;;6153129;23;20126;-81
2021/01/07 06:33:42;;;;;;;23.33;15.57;;;5.70;99.90;;;;;;6102754;23;20196;-81
2021/01/07 06:36:52;;;;;;;21.90;14.57;;;5.70;99.90;;;;;;6139796;23;20560;-81
2021/01/07 06:39:32;;;;;;;21.38;14.43;;;5.70;99.90;;;;;;6152362;23;20155;-80
2021/01/07 06:42:27;;;;;;;24.67;15.68;;;5.70;99.90;;;;;;6153931;23;20147;-81
2021/01/07 06:45:40;;;;;;;22.73;14.15;;;5.70;99.90;;;;;;6130532;23;20188;-80
2021/01/07 06:48:45;;;;;;;;;;;;;;;;;;;;;
2021/01/07 06:51:25;;;;;;;23.85;16.45;;;5.70;99.90;;;;;;6126537;23;20143;-81
2021/01/07 06:54:10;;;;;;;23.02;15.80;;;5.70;99.90;;;;;;6128748;23;20170;-80
2021/01/07 06:56:47;;;;;;;21.50;14.13;;;5.70;99.90;;;;;;6149301;23;20333;-79
2021/01/07 06:59:14;;;;;;;21.92;15.45;;;5.70;99.90;;;;;;6124984;23;20143;-79
2021/01/07 07:01:58;;;;;;;22.60;16.15;;;5.70;99.90;;;;;;6149957;23;20135;-80
2021/01/07 07:04:31;;;;;;;23.88;15.63;;;5.80;99.90;;;;;;6150472;23;20543;-79
2021/01/07 07:07:16;;;;;;;23.65;16.10;;;5.80;99.90;;;;;;6150202;23;20162;-79
2021/01/07 07:10:12;;;;;;;22.75;15.40;;;5.80;99.90;;;;;;6125702;23;20174;-79
2021/01/07 07:13:15;;;;;;;20.52;14.73;;;5.80;99.90;;;;;;6111656;23;20154;-79
2021/01/07 07:15:48;;;;;;;17.92;13.45;;;5.80;99.90;;;;;;6126427;23;20616;-78
2021/01/07 07:18:34;;;;;;;20.92;14.23;;;5.80;99.90;;;;;;6150447;23;20468;-79
2021/01/07 07:21:27;;;;;;;20.50;14.75;;;5.80;99.90;;;;;;6152821;23;20141;-79
2021/01/07 07:24:03;;;;;;;18.70;15.93;;;5.80;99.90;;;;;;6150778;23;20212;-80
2021/01/07 07:27:03;;;;;;;19.95;13.40;;;5.80;99.90;;;;;;6102631;23;20150;-79
2021/01/07 07:29:45;;;;;;;17.65;12.23;;;5.80;99.90;;;;;;6138966;23;20193;-81
2021/01/07 07:36:38;;;;;;;20.20;13.60;;;5.70;99.90;;;;;;6147410;23;20177;-82
2021/01/07 07:39:27;;;;;;;;;;;;;;;;;;;;;
2021/01/07 07:42:20;;;;;;;20.45;14.45;;;5.70;99.90;;;;;;6174126;23;20197;-80
2021/01/07 07:45:50;;;;;;;19.00;11.65;;;5.60;99.90;;;;;;6130323;23;20176;-80
2021/01/07 07:49:10;;;;;;;16.25;10.20;;;5.60;99.90;;;;;;6154954;23;20185;-80
2021/01/07 07:51:53;;;;;;;16.08;10.70;;;5.70;99.90;;;;;;6122342;23;20161;-79
2021/01/07 07:54:41;;;;;;;;;;;;;;;;;;;;;
2021/01/07 07:57:59;;;;;;;18.48;13.38;;;5.70;99.90;;;;;;6115902;23;20177;-79
2021/01/07 08:01:14;;;;;;;18.02;13.55;;;5.70;99.90;;;;;;6099624;23;20150;-79
2021/01/07 08:04:56;;;;;;;20.08;13.32;;;5.70;99.90;;;;;;6102742;23;20178;-79
2021/01/07 08:11:23;;;;;;;17.50;12.02;;;5.80;99.90;;;;;;6098634;23;20205;-79
2021/01/07 08:14:01;;;;;;;18.42;13.23;;;5.80;99.90;;;;;;6105048;23;20201;-79
2021/01/07 08:17:02;;;;;;;19.50;14.68;;;5.80;99.90;;;;;;6127147;23;20209;-79
2021/01/07 08:19:43;;;;;;;22.60;15.73;;;5.80;99.90;;;;;;6101061;23;20162;-79
2021/01/07 08:22:19;;;;;;;;;;;;;;;;;;;;;
2021/01/07 08:28:32;;;;;;;23.98;16.58;;;5.80;99.90;;;;;;6149722;23;20606;-80
2021/01/07 08:32:04;;;;;;;21.77;15.52;;;5.90;99.90;;;;;;6128741;23;20161;-80
2021/01/07 08:35:37;;;;;;;22.63;14.60;;;5.90;99.90;;;;;;6096148;23;20170;-80
2021/01/07 08:38:55;;;;;;;20.58;13.70;;;5.90;99.90;;;;;;6121464;23;20228;-80
2021/01/07 08:41:42;;;;;;;19.40;13.07;;;5.80;99.90;;;;;;6128704;23;20162;-80
2021/01/07 08:44:09;;;;;;;22.38;16.63;;;5.80;99.90;;;;;;6127276;23;20178;-81
2021/01/07 08:47:41;;;;;;;;;;;;;;;;;;;;;
2021/01/07 08:52:30;;;;;;;20.83;14.13;;;5.80;99.90;;;;;;6036093;23;20168;-83
2021/01/07 08:56:10;;;;;;;;;;;;;;;;;;;;;
2021/01/07 09:00:00;;;;;;;23.55;14.18;;;5.70;99.90;;;;;;6137067;23;20180;-79
2021/01/07 09:03:04;;;;;;;18.17;13.23;;;5.70;99.90;;;;;;6126494;23;20169;-79
2021/01/07 09:10:52;;;;;;;21.23;14.10;;;5.60;99.90;;;;;;6175449;23;20174;-79
2021/01/07 09:13:45;;;;;;;21.35;12.98;;;5.70;99.90;;;;;;6132934;23;20280;-80
2021/01/07 09:17:07;;;;;;;15.50;11.30;;;5.60;99.90;;;;;;6131409;23;20237;-80
2021/01/07 09:20:32;;;;;;;22.48;15.15;;;5.60;99.90;;;;;;6111124;23;20158;-79
2021/01/07 09:23:09;;;;;;;16.63;12.45;;;5.70;99.90;;;;;;6127128;23;20181;-80
2021/01/07 09:25:55;;;;;;;19.02;13.35;;;5.60;99.90;;;;;;6127326;23;20499;-83
2021/01/07 09:28:49;;;;;;;19.00;12.40;;;5.70;99.90;;;;;;6125632;23;20178;-80
2021/01/07 09:32:01;;;;;;;16.13;12.15;;;5.70;99.90;;;;;;6122298;23;20174;-80
2021/01/07 09:34:42;;;;;;;20.83;14.35;;;5.70;99.90;;;;;;6125348;23;20258;-80
2021/01/07 09:37:43;;;;;;;19.17;12.70;;;5.70;99.90;;;;;;6126568;23;20161;-81
2021/01/07 09:40:09;;;;;;;17.23;12.45;;;5.70;99.90;;;;;;6078188;23;20154;-78
2021/01/07 09:42:37;;;;;;;16.17;11.88;;;5.70;99.90;;;;;;6078591;23;20540;-78
2021/01/07 09:45:11;;;;;;;18.07;12.73;;;5.70;99.90;;;;;;6126246;23;20249;-78
2021/01/07 09:47:46;;;;;;;20.60;14.35;;;5.70;99.90;;;;;;6078193;23;20600;-84
2021/01/07 09:50:14;;;;;;;18.83;13.27;;;5.70;99.90;;;;;;6106242;23;20632;-83
2021/01/07 09:52:42;;;;;;;15.70;11.43;;;5.70;99.90;;;;;;6078303;23;20200;-82
2021/01/07 09:58:37;;;;;;;20.25;17.25;;;5.80;99.90;;;;;;6095101;23;21005;-82
2021/01/07 10:01:34;;;;;;;18.08;13.15;;;5.70;99.90;;;;;;6096727;23;20150;-81
2021/01/07 10:04:11;;;;;;;16.90;13.77;;;5.80;99.90;;;;;;6097512;23;20638;-82
2021/01/07 10:06:43;;;;;;;15.48;11.80;;;5.90;99.90;;;;;;6092985;23;20214;-81
2021/01/07 10:09:15;;;;;;;14.02;11.20;;;5.90;99.90;;;;;;6078423;23;20485;-82
2021/01/07 10:11:41;;;;;;;17.25;15.00;;;6.00;99.90;;;;;;6150878;23;20658;-81
2021/01/07 10:14:07;;;;;;;17.48;12.85;;;5.90;99.90;;;;;;6152322;23;20174;-81
2021/01/07 10:16:33;;;;;;;13.93;11.13;;;6.00;99.90;;;;;;6126550;23;20143;-80
2021/01/07 10:18:59;;;;;;;15.93;10.63;;;6.00;99.90;;;;;;6151818;23;20526;-81
2021/01/07 10:21:26;;;;;;;12.50;9.88;;;6.10;99.90;;;;;;6152179;23;20229;-80
2021/01/07 10:23:52;;;;;;;12.13;9.23;;;6.10;99.90;;;;;;6152141;23;20170;-81
2021/01/07 10:26:21;;;;;;;10.77;9.18;;;6.20;99.90;;;;;;6103442;23;20578;-81
2021/01/07 10:28:48;;;;;;;14.40;10.40;;;6.20;99.90;;;;;;6077053;23;20179;-82
2021/01/07 10:35:51;;;;;;;7.65;5.85;;;6.20;99.90;;;;;;6032694;23;20200;-79
2021/01/07 10:44:07;;;;;;;;;;;;;;;;;;;;;
2021/01/07 10:49:20;;;;;;;8.18;6.38;;;6.20;99.90;;;;;;6069534;23;20199;-80
2021/01/07 10:59:44;;;;;;;7.10;5.63;;;6.20;99.90;;;;;;6149428;23;20131;-79
2021/01/07 11:03:14;;;;;;;9.83;7.23;;;6.10;99.90;;;;;;6149018;23;20684;-80
2021/01/07 12:00:14;;;;;;;;;;;;;;;;;;;;;
2021/01/07 12:03:29;;;;;;;9.50;8.48;;;6.10;99.90;;;;;;6120286;23;20162;-79
2021/01/07 12:06:24;;;;;;;10.07;7.25;;;6.20;99.90;;;;;;6152147;23;20176;-78
2021/01/07 12:09:28;;;;;;;11.15;8.32;;;6.20;99.90;;;;;;6151738;23;20221;-78
2021/01/07 12:12:31;;;;;;;;;;;;;;;;;;;;;
2021/01/07 12:15:36;;;;;;;12.18;8.25;;;6.20;99.90;;;;;;6151524;23;20178;-80
2021/01/07 12:19:04;;;;;;;8.52;7.65;;;6.20;99.90;;;;;;6137910;23;20205;-80
2021/01/07 12:22:03;;;;;;;9.90;8.55;;;6.20;99.90;;;;;;6148237;23;20209;-79
2021/01/07 12:24:33;;;;;;;13.90;12.40;;;6.20;99.90;;;;;;6151777;23;20772;-78
2021/01/07 12:27:09;;;;;;;13.73;12.32;;;6.10;99.90;;;;;;6150567;23;20711;-78
2021/01/07 12:29:42;;;;;;;13.13;10.05;;;6.00;99.90;;;;;;6150280;23;20495;-79
2021/01/07 12:32:28;;;;;;;8.35;7.38;;;6.10;99.90;;;;;;6152932;23;20141;-79
2021/01/07 12:35:40;;;;;;;8.60;7.13;;;6.20;99.90;;;;;;6152489;23;20166;-79
2021/01/07 12:38:47;;;;;;;;;;;;;;;;;;;;;
2021/01/07 12:41:38;;;;;;;7.15;6.45;;;6.30;99.90;;;;;;6152770;23;20650;-79
2021/01/07 12:45:11;;;;;;;9.43;6.97;;;6.30;99.90;;;;;;6151066;23;20245;-79
2021/01/07 12:47:40;;;;;;;8.93;8.02;;;6.30;99.90;;;;;;6150424;23;20686;-78
2021/01/07 12:50:11;;;;;;;7.97;6.65;;;6.10;99.90;;;;;;6149844;23;20151;-79
2021/01/07 12:52:50;;;;;;;5.95;5.05;;;6.20;99.90;;;;;;6152955;23;20131;-79
2021/01/07 12:56:54;;;;;;;7.35;6.18;;;6.20;99.90;;;;;;6153579;23;20694;-79
2021/01/07 13:00:08;;;;;;;8.40;5.97;;;6.20;99.90;;;;;;6151469;23;20616;-79
2021/01/07 13:02:48;;;;;;;7.03;5.28;;;6.20;99.90;;;;;;6156596;23;20165;-78
2021/01/07 13:05:22;;;;;;;6.00;5.03;;;6.20;99.90;;;;;;6151605;23;20625;-78
2021/01/07 13:07:48;;;;;;;7.43;4.90;;;6.20;99.90;;;;;;6150346;23;20161;-77
2021/01/07 13:10:16;;;;;;;9.80;8.80;;;6.20;99.90;;;;;;6123711;23;20802;-77
2021/01/07 13:12:45;;;;;;;9.05;7.53;;;6.10;99.90;;;;;;6126396;23;20150;-78
2021/01/07 13:15:12;;;;;;;7.03;6.32;;;6.20;99.90;;;;;;6152490;23;20597;-78
2021/01/07 13:17:42;;;;;;;6.65;5.97;;;6.20;99.90;;;;;;6151714;23;20158;-78
2021/01/07 13:20:11;;;;;;;6.88;6.28;;;6.20;99.90;;;;;;6126534;23;20426;-78
2021/01/07 13:22:39;;;;;;;7.50;6.25;;;6.20;99.90;;;;;;6152902;23;20600;-80
2021/01/07 13:25:09;;;;;;;8.38;7.50;;;6.20;99.90;;;;;;6151790;23;20681;-81
2021/01/07 13:27:38;;;;;;;8.00;7.20;;;6.20;99.90;;;;;;6152541;23;20174;-81
2021/01/07 13:30:09;;;;;;;7.75;7.05;;;6.20;99.90;;;;;;6152720;23;21171;-80
2021/01/07 13:32:35;;;;;;;6.78;6.18;;;6.20;99.90;;;;;;6156999;23;20150;-78
2021/01/07 13:35:08;;;;;;;7.63;6.82;;;6.20;99.90;;;;;;6127816;23;20217;-77
2021/01/07 13:37:34;;;;;;;9.85;8.15;;;6.20;99.90;;;;;;6152202;23;20677;-80
2021/01/07 13:40:00;;;;;;;7.88;7.13;;;6.20;99.90;;;;;;6127342;23;20200;-80
2021/01/07 13:42:28;;;;;;;7.72;6.93;;;6.20;99.90;;;;;;6141356;23;20135;-80
2021/01/07 13:44:59;;;;;;;7.53;6.78;;;6.20;99.90;;;;;;6131294;23;20178;-80
2021/01/07 13:47:28;;;;;;;8.55;7.03;;;6.20;99.90;;;;;;6152409;23;20174;-80
2021/01/07 13:50:06;;;;;;;8.40;7.60;;;6.30;99.90;;;;;;6154093;23;20135;-80
2021/01/07 13:52:36;;;;;;;8.38;7.57;;;6.30;99.90;;;;;;6152907;23;20134;-80
2021/01/07 13:55:06;;;;;;;8.52;6.60;;;6.30;99.90;;;;;;6152699;23;20201;-80
2021/01/07 13:57:33;;;;;;;6.80;6.20;;;6.30;99.90;;;;;;6126691;23;20138;-79
2021/01/07 13:59:59;;;;;;;7.03;6.32;;;6.30;99.90;;;;;;6125144;23;20154;-79
2021/01/07 14:02:26;;;;;;;7.32;5.72;;;6.30;99.90;;;;;;6125286;23;20155;-79
2021/01/07 14:04:52;;;;;;;6.60;6.00;;;6.20;99.90;;;;;;6140429;23;20707;-79
2021/01/07 14:07:34;;;;;;;9.90;7.65;;;6.20;99.90;;;;;;6151574;23;20272;-79
2021/01/07 14:10:02;;;;;;;8.27;7.40;;;6.20;99.90;;;;;;6154203;23;20145;-80
2021/01/07 14:12:30;;;;;;;9.57;8.68;;;6.20;99.90;;;;;;6150975;23;20449;-79
2021/01/07 14:14:57;;;;;;;9.05;7.60;;;6.20;99.90;;;;;;6152294;23;20504;-79
2021/01/07 14:17:24;;;;;;;7.40;6.70;;;6.20;99.90;;;;;;6148517;23;20496;-80
2021/01/07 14:19:52;;;;;;;7.35;6.40;;;6.20;99.90;;;;;;6151940;23;20198;-79
2021/01/07 14:22:19;;;;;;;9.75;8.85;;;6.30;99.90;;;;;;6174055;23;20698;-79
2021/01/07 14:24:46;;;;;;;10.03;9.03;;;6.20;99.90;;;;;;6174656;23;20697;-79
2021/01/07 14:27:39;;;;;;;10.20;7.85;;;6.10;99.90;;;;;;6152130;23;20538;-79
2021/01/07 14:30:07;;;;;;;8.60;7.43;;;6.20;99.90;;;;;;6151582;23;20135;-79
2021/01/07 14:32:34;;;;;;;9.75;7.97;;;6.20;99.90;;;;;;6126260;23;20253;-79
2021/01/07 14:35:09;;;;;;;9.80;8.55;;;6.30;99.90;;;;;;6151335;23;20493;-79
2021/01/07 14:37:36;;;;;;;7.35;6.65;;;6.30;99.90;;;;;;6149337;23;20682;-78
2021/01/07 14:40:05;;;;;;;6.82;5.70;;;6.30;99.90;;;;;;6151600;23;20143;-79
2021/01/07 14:42:33;;;;;;;5.22;4.75;;;6.40;99.90;;;;;;6150538;23;20604;-78
2021/01/07 14:45:01;;;;;;;9.68;7.18;;;6.40;99.90;;;;;;6150571;23;20707;-79
2021/01/07 14:47:32;;;;;;;6.20;5.30;;;6.30;99.90;;;;;;6154918;23;20173;-78
2021/01/07 14:50:02;;;;;;;7.45;6.32;;;6.30;99.90;;;;;;6152427;23;20217;-79
2021/01/07 14:52:30;;;;;;;7.63;6.47;;;6.30;99.90;;;;;;6152371;23;20209;-79
2021/01/07 14:55:02;;;;;;;5.95;5.38;;;6.20;99.90;;;;;;6151625;23;20224;-77
2021/01/07 14:57:45;;;;;;;6.47;5.85;;;6.20;99.90;;;;;;6150475;23;20143;-77
2021/01/07 15:00:15;;;;;;;8.10;5.50;;;6.20;99.90;;;;;;6148317;23;20712;-76
2021/01/07 15:03:19;;;;;;;6.53;5.80;;;6.20;99.90;;;;;;6124807;23;20146;-77
2021/01/07 15:05:57;;;;;;;8.35;7.05;;;6.10;99.90;;;;;;6149693;23;20166;-78
2021/01/07 15:08:33;;;;;;;8.75;6.30;;;6.10;99.90;;;;;;6149567;23;20229;-78
2021/01/07 15:11:01;;;;;;;6.80;5.90;;;6.10;99.90;;;;;;6149547;23;20851;-79
2021/01/07 15:13:33;;;;;;;6.10;5.50;;;6.10;99.90;;;;;;6151162;23;20187;-79
2021/01/07 15:16:24;;;;;;;6.20;5.60;;;6.10;99.90;;;;;;6151129;23;20138;-79
2021/01/07 15:18:59;;;;;;;6.57;5.40;;;6.00;99.90;;;;;;6150813;23;20145;-79
2021/01/07 15:22:02;;;;;;;6.32;5.72;;;6.00;99.90;;;;;;6125316;23;20223;-78
2021/01/07 15:25:04;;;;;;;19.13;6.53;;;6.00;99.90;;;;;;6155108;23;20166;-79
2021/01/07 15:27:40;;;;;;;6.57;5.82;;;6.00;99.90;;;;;;6149961;23;20159;-79
2021/01/07 15:30:11;;;;;;;6.72;5.82;;;6.00;99.90;;;;;;6151053;23;20146;-78
2021/01/07 15:33:03;;;;;;;9.15;8.38;;;5.90;99.90;;;;;;6152092;23;20673;-79
2021/01/07 15:35:38;;;;;;;8.20;7.40;;;5.80;99.90;;;;;;6152185;23;20162;-79
2021/01/07 15:38:38;;;;;;;6.93;6.25;;;5.80;99.90;;;;;;6101288;23;20146;-79
2021/01/07 15:41:41;;;;;;;8.18;6.63;;;5.80;99.90;;;;;;6152380;23;20139;-79
2021/01/07 15:44:47;;;;;;;7.72;6.60;;;5.80;99.90;;;;;;6149350;23;20560;-79
2021/01/07 15:47:40;;;;;;;10.05;7.53;;;5.90;99.90;;;;;;6150994;23;20135;-79
2021/01/07 15:50:23;;;;;;;10.02;8.57;;;5.90;99.90;;;;;;6125526;23;20538;-80
2021/01/07 15:53:13;;;;;;;12.27;8.85;;;5.90;99.90;;;;;;6152004;23;20661;-79
2021/01/07 15:56:02;;;;;;;13.88;12.48;;;5.80;99.90;;;;;;6153530;23;20651;-78
2021/01/07 15:58:56;;;;;;;10.57;9.40;;;5.70;99.90;;;;;;6151824;23;20138;-79
2021/01/07 16:01:30;;;;;;;13.05;9.52;;;5.80;99.90;;;;;;6155703;23;20489;-80
2021/01/07 16:03:57;;;;;;;9.68;8.88;;;5.80;99.90;;;;;;6151148;23;20577;-80
2021/01/07 16:06:32;;;;;;;11.70;8.35;;;5.80;99.90;;;;;;6150825;23;20217;-79
2021/01/07 16:09:46;;;;;;;9.85;7.88;;;5.90;99.90;;;;;;6129398;23;20518;-80
2021/01/07 16:12:44;;;;;;;11.90;10.70;;;5.90;99.90;;;;;;6031438;23;20704;-80
2021/01/07 16:15:24;;;;;;;12.95;11.48;;;5.80;99.90;;;;;;6135980;23;20631;-80
2021/01/07 16:17:50;;;;;;;11.40;10.25;;;5.80;99.90;;;;;;6149589;23;20145;-80
2021/01/07 16:20:19;;;;;;;10.40;9.50;;;5.80;99.90;;;;;;6150079;23;20178;-80
2021/01/07 16:22:51;;;;;;;9.73;8.57;;;5.80;99.90;;;;;;6150672;23;20138;-80
2021/01/07 16:25:31;;;;;;;13.80;10.40;;;5.80;99.90;;;;;;6152735;23;20173;-80
2021/01/07 16:28:11;;;;;;;11.15;9.88;;;5.80;99.90;;;;;;6151655;23;20189;-80
2021/01/07 16:30:41;;;;;;;13.07;11.68;;;5.80;99.90;;;;;;6152495;23;20602;-80
2021/01/07 16:33:08;;;;;;;12.48;9.20;;;5.80;99.90;;;;;;6152697;23;20213;-80
2021/01/07 16:35:37;;;;;;;10.48;9.18;;;5.80;99.90;;;;;;6149090;23;20194;-78
2021/01/07 16:38:04;;;;;;;9.23;8.33;;;5.80;99.90;;;;;;6107124;23;20150;-77
2021/01/07 16:40:41;;;;;;;10.05;9.05;;;5.90;99.90;;;;;;6124853;23;20578;-77
2021/01/07 16:43:07;;;;;;;7.13;6.43;;;5.90;99.90;;;;;;6152779;23;20146;-77
2021/01/07 16:45:34;;;;;;;7.18;6.47;;;5.90;99.90;;;;;;6152987;23;20261;-78
2021/01/07 16:48:00;;;;;;;8.15;7.35;;;5.90;99.90;;;;;;6126564;23;20236;-77
2021/01/07 16:50:27;;;;;;;8.98;8.18;;;5.90;99.90;;;;;;6126764;23;20151;-77
2021/01/07 16:52:54;;;;;;;6.63;6.05;;;5.90;99.90;;;;;;6153031;23;20591;-78
2021/01/07 16:55:20;;;;;;;7.43;6.47;;;5.90;99.90;;;;;;6150955;23;20186;-78
2021/01/07 16:57:48;;;;;;;7.00;6.30;;;5.90;99.90;;;;;;6126182;23;20154;-78
2021/01/07 17:00:14;;;;;;;6.25;5.75;;;5.90;99.90;;;;;;6152282;23;20197;-78
2021/01/07 17:02:40;;;;;;;6.68;5.97;;;5.90;99.90;;;;;;6126873;23;20485;-78
2021/01/07 17:05:07;;;;;;;8.77;6.40;;;5.90;99.90;;;;;;6152842;23;20153;-77
2021/01/07 17:07:34;;;;;;;6.93;5.70;;;5.90;99.90;;;;;;6152495;23;20609;-77
2021/01/07 17:10:10;;;;;;;5.82;4.72;;;5.90;99.90;;;;;;6152237;23;20234;-77
2021/01/07 17:12:38;;;;;;;9.23;5.70;;;5.90;99.90;;;;;;6103664;23;20145;-78
2021/01/07 17:15:05;;;;;;;5.22;4.18;;;5.90;99.90;;;;;;6132114;23;20174;-77
2021/01/07 17:17:31;;;;;;;3.80;3.42;;;5.90;99.90;;;;;;6152235;23;20174;-76
2021/01/07 17:19:57;;;;;;;4.00;3.00;;;5.80;99.90;;;;;;6126897;23;20154;-78